sensor_id;sensor_type;location;lat;lon;timestamp;pressure;altitude;pressure_sealevel;temperature;humidity
33859;BME280;20156;47.486;12.074;2023-04-26T00:01:45;91706.13;;;5.70;100.00
33859;BME280;20156;47.486;12.074;2023-04-26T00:04:11;91687.81;;;5.82;100.00
33859;BME280;20156;47.486;12.074;2023-04-26T00:06:36;91684.69;;;5.85;100.00
33859;BME280;20156;47.486;12.074;2023-04-26T00:09:02;91692.72;;;5.78;100.00
33859;BME280;20156;47.486;12.074;2023-04-26T00:11:28;91678.25;;;5.87;100.00
33859;BME280;20156;47.486;12.074;2023-04-26T00:13:54;91698.13;;;5.82;100.00
33859;BME280;20156;47.486;12.074;2023-04-26T00:16:19;91683.69;;;5.91;100.00
33859;BME280;20156;47.486;12.074;2023-04-26T00:18:45;91706.91;;;5.76;100.00
33859;BME280;20156;47.486;12.074;2023-04-26T00:21:11;91721.09;;;5.78;100.00
33859;BME280;20156;47.486;12.074;2023-04-26T00:23:36;91759.50;;;5.69;100.00
33859;BME280;20156;47.486;12.074;2023-04-26T00:26:02;91771.13;;;5.72;100.00
33859;BME280;20156;47.486;12.074;2023-04-26T00:28:28;91767.50;;;5.83;100.00
33859;BME280;20156;47.486;12.074;2023-04-26T00:30:54;91811.59;;;5.71;100.00
33859;BME280;20156;47.486;12.074;2023-04-26T00:33:22;91796.63;;;5.79;100.00
33859;BME280;20156;47.486;12.074;2023-04-26T00:35:48;91793.28;;;5.88;100.00
33859;BME280;20156;47.486;12.074;2023-04-26T00:38:13;91768.03;;;5.95;100.00
33859;BME280;20156;47.486;12.074;2023-04-26T00:40:38;91747.63;;;5.99;100.00
33859;BME280;20156;47.486;12.074;2023-04-26T00:43:04;91786.31;;;5.79;100.00
33859;BME280;20156;47.486;12.074;2023-04-26T00:45:30;91800.25;;;5.67;100.00
33859;BME280;20156;47.486;12.074;2023-04-26T00:47:57;91804.63;;;5.67;100.00
33859;BME280;20156;47.486;12.074;2023-04-26T00:50:24;91806.69;;;5.65;100.00
33859;BME280;20156;47.486;12.074;2023-04-26T00:52:50;91804.09;;;5.70;100.00
33859;BME280;20156;47.486;12.074;2023-04-26T00:55:16;91763.13;;;5.89;100.00
33859;BME280;20156;47.486;12.074;2023-04-26T00:57:44;91751.00;;;5.94;100.00
33859;BME280;20156;47.486;12.074;2023-04-26T01:00:10;91760.31;;;5.90;100.00
33859;BME280;20156;47.486;12.074;2023-04-26T01:02:36;91764.38;;;5.86;100.00
33859;BME280;20156;47.486;12.074;2023-04-26T01:05:02;91762.09;;;5.95;100.00
33859;BME280;20156;47.486;12.074;2023-04-26T01:07:29;91746.59;;;6.05;100.00
33859;BME280;20156;47.486;12.074;2023-04-26T01:09:55;91771.88;;;6.03;100.00
33859;BME280;20156;47.486;12.074;2023-04-26T01:12:22;91778.06;;;6.07;100.00
33859;BME280;20156;47.486;12.074;2023-04-26T01:14:48;91782.47;;;6.07;100.00
33859;BME280;20156;47.486;12.074;2023-04-26T01:17:14;91808.25;;;5.96;100.00
33859;BME280;20156;47.486;12.074;2023-04-26T01:19:49;91861.88;;;5.84;100.00
33859;BME280;20156;47.486;12.074;2023-04-26T01:22:15;91902.34;;;5.84;100.00
33859;BME280;20156;47.486;12.074;2023-04-26T01:24:46;91945.16;;;5.80;100.00
33859;BME280;20156;47.486;12.074;2023-04-26T01:27:12;91933.13;;;6.06;100.00
33859;BME280;20156;47.486;12.074;2023-04-26T01:29:38;91944.97;;;6.01;100.00
33859;BME280;20156;47.486;12.074;2023-04-26T01:32:03;91969.72;;;6.02;100.00
33859;BME280;20156;47.486;12.074;2023-04-26T01:34:29;91985.97;;;6.03;100.00
33859;BME280;20156;47.486;12.074;2023-04-26T01:36:55;92029.75;;;5.88;100.00
33859;BME280;20156;47.486;12.074;2023-04-26T01:39:21;92061.47;;;5.78;100.00
33859;BME280;20156;47.486;12.074;2023-04-26T01:41:46;92034.75;;;5.99;100.00
33859;BME280;20156;47.486;12.074;2023-04-26T01:44:12;92050.97;;;5.95;100.00
33859;BME280;20156;47.486;12.074;2023-04-26T01:46:37;92085.47;;;5.84;100.00
33859;BME280;20156;47.486;12.074;2023-04-26T01:49:02;92090.13;;;5.87;100.00
33859;BME280;20156;47.486;12.074;2023-04-26T01:51:28;92102.84;;;5.93;100.00
33859;BME280;20156;47.486;12.074;2023-04-26T01:53:53;92101.81;;;6.04;100.00
33859;BME280;20156;47.486;12.074;2023-04-26T01:56:19;92096.44;;;6.06;100.00
33859;BME280;20156;47.486;12.074;2023-04-26T01:58:44;92123.19;;;5.90;100.00
33859;BME280;20156;47.486;12.074;2023-04-26T02:01:10;92089.72;;;6.10;100.00
33859;BME280;20156;47.486;12.074;2023-04-26T02:03:36;92092.84;;;6.17;100.00
33859;BME280;20156;47.486;12.074;2023-04-26T02:06:02;92125.56;;;6.01;100.00
33859;BME280;20156;47.486;12.074;2023-04-26T02:08:27;92154.22;;;6.05;100.00
33859;BME280;20156;47.486;12.074;2023-04-26T02:10:53;92200.59;;;5.95;100.00
33859;BME280;20156;47.486;12.074;2023-04-26T02:13:18;92193.91;;;6.04;100.00
33859;BME280;20156;47.486;12.074;2023-04-26T02:15:48;92195.78;;;6.14;100.00
33859;BME280;20156;47.486;12.074;2023-04-26T02:18:14;92170.31;;;6.27;100.00
33859;BME280;20156;47.486;12.074;2023-04-26T02:20:40;92141.16;;;6.32;100.00
33859;BME280;20156;47.486;12.074;2023-04-26T02:23:08;63601.91;;;-144.78;100.00
33859;BME280;20156;47.486;12.074;2023-04-26T02:25:33;63601.63;;;-144.78;100.00
33859;BME280;20156;47.486;12.074;2023-04-26T02:27:59;63601.63;;;-144.78;100.00
33859;BME280;20156;47.486;12.074;2023-04-26T02:30:25;63601.63;;;-144.78;100.00
33859;BME280;20156;47.486;12.074;2023-04-26T02:32:54;63601.63;;;-144.78;100.00
33859;BME280;20156;47.486;12.074;2023-04-26T02:35:20;63601.63;;;-144.78;100.00
33859;BME280;20156;47.486;12.074;2023-04-26T02:37:46;63601.63;;;-144.78;100.00
33859;BME280;20156;47.486;12.074;2023-04-26T02:40:13;63601.63;;;-144.78;100.00
33859;BME280;20156;47.486;12.074;2023-04-26T02:42:39;63601.63;;;-144.78;100.00
33859;BME280;20156;47.486;12.074;2023-04-26T02:45:05;63601.63;;;-144.78;100.00
33859;BME280;20156;47.486;12.074;2023-04-26T02:47:31;63601.63;;;-144.78;100.00
33859;BME280;20156;47.486;12.074;2023-04-26T02:49:56;63601.63;;;-144.78;100.00
33859;BME280;20156;47.486;12.074;2023-04-26T02:52:22;63601.63;;;-144.78;100.00
33859;BME280;20156;47.486;12.074;2023-04-26T02:54:47;63601.63;;;-144.78;100.00
33859;BME280;20156;47.486;12.074;2023-04-26T02:57:13;63601.63;;;-144.78;100.00
33859;BME280;20156;47.486;12.074;2023-04-26T02:59:38;63601.63;;;-144.78;100.00
33859;BME280;20156;47.486;12.074;2023-04-26T03:02:03;63601.63;;;-144.78;100.00
33859;BME280;20156;47.486;12.074;2023-04-26T03:04:31;63601.63;;;-144.78;100.00
33859;BME280;20156;47.486;12.074;2023-04-26T03:06:58;63601.63;;;-144.78;100.00
33859;BME280;20156;47.486;12.074;2023-04-26T03:09:23;63601.63;;;-144.78;100.00
33859;BME280;20156;47.486;12.074;2023-04-26T03:11:49;63601.63;;;-144.78;100.00
33859;BME280;20156;47.486;12.074;2023-04-26T03:14:14;63601.63;;;-144.78;100.00
33859;BME280;20156;47.486;12.074;2023-04-26T03:16:41;63601.63;;;-144.78;100.00
33859;BME280;20156;47.486;12.074;2023-04-26T03:19:07;63601.63;;;-144.78;100.00
33859;BME280;20156;47.486;12.074;2023-04-26T03:21:32;63601.63;;;-144.78;100.00
33859;BME280;20156;47.486;12.074;2023-04-26T03:23:58;63601.63;;;-144.78;100.00
33859;BME280;20156;47.486;12.074;2023-04-26T03:26:23;63601.63;;;-144.78;100.00
33859;BME280;20156;47.486;12.074;2023-04-26T03:28:49;63601.63;;;-144.78;100.00
33859;BME280;20156;47.486;12.074;2023-04-26T03:31:14;63601.63;;;-144.78;100.00
33859;BME280;20156;47.486;12.074;2023-04-26T03:33:39;63601.63;;;-144.78;100.00
33859;BME280;20156;47.486;12.074;2023-04-26T03:36:05;63601.63;;;-144.78;100.00
33859;BME280;20156;47.486;12.074;2023-04-26T03:38:31;63601.63;;;-144.78;100.00
33859;BME280;20156;47.486;12.074;2023-04-26T03:40:56;63601.63;;;-144.78;100.00
33859;BME280;20156;47.486;12.074;2023-04-26T03:43:22;63601.63;;;-144.78;100.00
33859;BME280;20156;47.486;12.074;2023-04-26T03:45:48;63601.63;;;-144.78;100.00
33859;BME280;20156;47.486;12.074;2023-04-26T03:48:14;63601.63;;;-144.78;100.00
33859;BME280;20156;47.486;12.074;2023-04-26T03:50:40;63601.63;;;-144.78;100.00
33859;BME280;20156;47.486;12.074;2023-04-26T03:53:06;63601.63;;;-144.78;100.00
33859;BME280;20156;47.486;12.074;2023-04-26T03:55:31;63601.63;;;-144.78;100.00
33859;BME280;20156;47.486;12.074;2023-04-26T03:57:57;63601.63;;;-144.78;100.00
33859;BME280;20156;47.486;12.074;2023-04-26T04:00:22;63601.63;;;-144.78;100.00
33859;BME280;20156;47.486;12.074;2023-04-26T04:02:48;63601.63;;;-144.78;100.00
33859;BME280;20156;47.486;12.074;2023-04-26T04:05:14;63601.63;;;-144.78;100.00
33859;BME280;20156;47.486;12.074;2023-04-26T04:07:39;63601.63;;;-144.78;100.00
33859;BME280;20156;47.486;12.074;2023-04-26T04:10:05;63601.63;;;-144.78;100.00
33859;BME280;20156;47.486;12.074;2023-04-26T04:12:31;63601.63;;;-144.78;100.00
33859;BME280;20156;47.486;12.074;2023-04-26T04:14:56;63601.63;;;-144.78;100.00
33859;BME280;20156;47.486;12.074;2023-04-26T04:17:22;63601.63;;;-144.78;100.00
33859;BME280;20156;47.486;12.074;2023-04-26T04:19:47;63601.63;;;-144.78;100.00
33859;BME280;20156;47.486;12.074;2023-04-26T04:22:13;63601.63;;;-144.78;100.00
33859;BME280;20156;47.486;12.074;2023-04-26T04:24:38;63601.63;;;-144.78;100.00
33859;BME280;20156;47.486;12.074;2023-04-26T04:27:05;63601.63;;;-144.78;100.00
33859;BME280;20156;47.486;12.074;2023-04-26T04:29:30;63601.63;;;-144.78;100.00
33859;BME280;20156;47.486;12.074;2023-04-26T04:31:57;63601.63;;;-144.78;100.00
33859;BME280;20156;47.486;12.074;2023-04-26T04:34:22;63601.63;;;-144.78;100.00
33859;BME280;20156;47.486;12.074;2023-04-26T04:36:50;63601.63;;;-144.78;100.00
33859;BME280;20156;47.486;12.074;2023-04-26T04:39:16;63601.63;;;-144.78;100.00
33859;BME280;20156;47.486;12.074;2023-04-26T04:41:42;63601.63;;;-144.78;100.00
33859;BME280;20156;47.486;12.074;2023-04-26T04:44:13;63601.63;;;-144.78;100.00
33859;BME280;20156;47.486;12.074;2023-04-26T04:46:40;63601.63;;;-144.78;100.00
33859;BME280;20156;47.486;12.074;2023-04-26T04:49:05;63601.63;;;-144.78;100.00
33859;BME280;20156;47.486;12.074;2023-04-26T04:51:34;63601.63;;;-144.78;100.00
33859;BME280;20156;47.486;12.074;2023-04-26T04:54:09;63601.63;;;-144.78;100.00
33859;BME280;20156;47.486;12.074;2023-04-26T04:56:35;63601.63;;;-144.78;100.00
33859;BME280;20156;47.486;12.074;2023-04-26T04:59:00;63601.63;;;-144.78;100.00
33859;BME280;20156;47.486;12.074;2023-04-26T05:01:25;63601.63;;;-144.78;100.00
33859;BME280;20156;47.486;12.074;2023-04-26T05:03:51;63601.63;;;-144.78;100.00
33859;BME280;20156;47.486;12.074;2023-04-26T05:06:16;63601.63;;;-144.78;100.00
33859;BME280;20156;47.486;12.074;2023-04-26T05:08:41;63601.63;;;-144.78;100.00
33859;BME280;20156;47.486;12.074;2023-04-26T05:11:07;63601.63;;;-144.78;100.00
33859;BME280;20156;47.486;12.074;2023-04-26T05:13:32;63601.63;;;-144.78;100.00
33859;BME280;20156;47.486;12.074;2023-04-26T05:15:58;63601.63;;;-144.78;100.00
33859;BME280;20156;47.486;12.074;2023-04-26T05:18:23;63601.63;;;-144.78;100.00
33859;BME280;20156;47.486;12.074;2023-04-26T05:20:48;63601.63;;;-144.78;100.00
33859;BME280;20156;47.486;12.074;2023-04-26T05:23:14;63601.63;;;-144.78;100.00
33859;BME280;20156;47.486;12.074;2023-04-26T05:25:40;63601.63;;;-144.78;100.00
33859;BME280;20156;47.486;12.074;2023-04-26T05:28:05;63601.63;;;-144.78;100.00
33859;BME280;20156;47.486;12.074;2023-04-26T05:30:36;63601.63;;;-144.78;100.00
33859;BME280;20156;47.486;12.074;2023-04-26T05:33:02;63601.63;;;-144.78;100.00
33859;BME280;20156;47.486;12.074;2023-04-26T05:35:27;63601.63;;;-144.78;100.00
33859;BME280;20156;47.486;12.074;2023-04-26T05:37:53;63601.63;;;-144.78;100.00
33859;BME280;20156;47.486;12.074;2023-04-26T05:40:18;63601.63;;;-144.78;100.00
33859;BME280;20156;47.486;12.074;2023-04-26T05:42:43;63601.63;;;-144.78;100.00
33859;BME280;20156;47.486;12.074;2023-04-26T05:45:09;63601.63;;;-144.78;100.00
33859;BME280;20156;47.486;12.074;2023-04-26T05:47:35;63601.63;;;-144.78;100.00
33859;BME280;20156;47.486;12.074;2023-04-26T05:50:01;63601.63;;;-144.78;100.00
33859;BME280;20156;47.486;12.074;2023-04-26T05:52:26;63601.63;;;-144.78;100.00
33859;BME280;20156;47.486;12.074;2023-04-26T05:54:52;63601.63;;;-144.78;100.00
33859;BME280;20156;47.486;12.074;2023-04-26T05:57:18;63601.63;;;-144.78;100.00
33859;BME280;20156;47.486;12.074;2023-04-26T05:59:43;63601.63;;;-144.78;100.00
33859;BME280;20156;47.486;12.074;2023-04-26T06:02:09;63601.63;;;-144.78;100.00
33859;BME280;20156;47.486;12.074;2023-04-26T06:04:35;63601.63;;;-144.78;100.00
33859;BME280;20156;47.486;12.074;2023-04-26T06:07:01;63601.63;;;-144.78;100.00
33859;BME280;20156;47.486;12.074;2023-04-26T06:09:27;63601.63;;;-144.78;100.00
33859;BME280;20156;47.486;12.074;2023-04-26T06:11:55;63601.63;;;-144.78;100.00
33859;BME280;20156;47.486;12.074;2023-04-26T06:14:21;63601.63;;;-144.78;100.00
33859;BME280;20156;47.486;12.074;2023-04-26T06:16:46;63601.63;;;-144.78;100.00
33859;BME280;20156;47.486;12.074;2023-04-26T06:19:12;63601.63;;;-144.78;100.00
33859;BME280;20156;47.486;12.074;2023-04-26T06:21:37;63601.63;;;-144.78;100.00
33859;BME280;20156;47.486;12.074;2023-04-26T06:24:02;63601.63;;;-144.78;100.00
33859;BME280;20156;47.486;12.074;2023-04-26T06:26:28;63601.63;;;-144.78;100.00
33859;BME280;20156;47.486;12.074;2023-04-26T06:28:54;63601.63;;;-144.78;100.00
33859;BME280;20156;47.486;12.074;2023-04-26T06:31:20;63601.63;;;-144.78;100.00
33859;BME280;20156;47.486;12.074;2023-04-26T06:33:47;63601.63;;;-144.78;100.00
33859;BME280;20156;47.486;12.074;2023-04-26T06:36:12;63601.63;;;-144.78;100.00
33859;BME280;20156;47.486;12.074;2023-04-26T06:38:38;63601.63;;;-144.78;100.00
33859;BME280;20156;47.486;12.074;2023-04-26T06:41:03;63601.63;;;-144.78;100.00
33859;BME280;20156;47.486;12.074;2023-04-26T06:43:28;63601.63;;;-144.78;100.00
33859;BME280;20156;47.486;12.074;2023-04-26T06:45:54;63601.63;;;-144.78;100.00
33859;BME280;20156;47.486;12.074;2023-04-26T06:48:19;63601.63;;;-144.78;100.00
33859;BME280;20156;47.486;12.074;2023-04-26T06:50:45;63601.63;;;-144.78;100.00
33859;BME280;20156;47.486;12.074;2023-04-26T06:53:10;63601.63;;;-144.78;100.00
33859;BME280;20156;47.486;12.074;2023-04-26T06:55:36;63601.63;;;-144.78;100.00
33859;BME280;20156;47.486;12.074;2023-04-26T06:58:01;63601.63;;;-144.78;100.00
33859;BME280;20156;47.486;12.074;2023-04-26T07:00:26;63601.63;;;-144.78;100.00
33859;BME280;20156;47.486;12.074;2023-04-26T07:02:55;63601.63;;;-144.78;100.00
33859;BME280;20156;47.486;12.074;2023-04-26T07:05:21;63601.63;;;-144.78;100.00
33859;BME280;20156;47.486;12.074;2023-04-26T07:07:46;63601.63;;;-144.78;100.00
33859;BME280;20156;47.486;12.074;2023-04-26T07:10:12;63601.63;;;-144.78;100.00
33859;BME280;20156;47.486;12.074;2023-04-26T07:12:38;63601.63;;;-144.78;100.00
33859;BME280;20156;47.486;12.074;2023-04-26T07:15:04;63601.63;;;-144.78;100.00
33859;BME280;20156;47.486;12.074;2023-04-26T07:17:31;63601.63;;;-144.78;100.00
33859;BME280;20156;47.486;12.074;2023-04-26T07:19:56;63601.63;;;-144.78;100.00
33859;BME280;20156;47.486;12.074;2023-04-26T07:22:22;63601.63;;;-144.78;100.00
33859;BME280;20156;47.486;12.074;2023-04-26T07:24:48;63601.63;;;-144.78;100.00
33859;BME280;20156;47.486;12.074;2023-04-26T07:27:13;63601.63;;;-144.78;100.00
33859;BME280;20156;47.486;12.074;2023-04-26T07:29:38;63601.63;;;-144.78;100.00
33859;BME280;20156;47.486;12.074;2023-04-26T07:32:04;63601.63;;;-144.78;100.00
33859;BME280;20156;47.486;12.074;2023-04-26T07:34:29;63601.63;;;-144.78;100.00
33859;BME280;20156;47.486;12.074;2023-04-26T07:36:55;63601.63;;;-144.78;100.00
33859;BME280;20156;47.486;12.074;2023-04-26T07:39:21;63601.63;;;-144.78;100.00
33859;BME280;20156;47.486;12.074;2023-04-26T07:41:47;63601.63;;;-144.78;100.00
33859;BME280;20156;47.486;12.074;2023-04-26T07:44:12;63601.63;;;-144.78;100.00
33859;BME280;20156;47.486;12.074;2023-04-26T07:46:37;63601.63;;;-144.78;100.00
33859;BME280;20156;47.486;12.074;2023-04-26T07:49:03;63601.63;;;-144.78;100.00
33859;BME280;20156;47.486;12.074;2023-04-26T07:51:28;63601.63;;;-144.78;100.00
33859;BME280;20156;47.486;12.074;2023-04-26T07:53:54;63601.63;;;-144.78;100.00
33859;BME280;20156;47.486;12.074;2023-04-26T07:56:22;63601.63;;;-144.78;100.00
33859;BME280;20156;47.486;12.074;2023-04-26T07:58:50;63601.63;;;-144.78;100.00
33859;BME280;20156;47.486;12.074;2023-04-26T08:01:16;63601.63;;;-144.78;100.00
33859;BME280;20156;47.486;12.074;2023-04-26T08:03:41;63601.63;;;-144.78;100.00
33859;BME280;20156;47.486;12.074;2023-04-26T08:06:07;63601.63;;;-144.78;100.00
33859;BME280;20156;47.486;12.074;2023-04-26T08:08:35;63601.63;;;-144.78;100.00
33859;BME280;20156;47.486;12.074;2023-04-26T08:11:07;63601.63;;;-144.78;100.00
33859;BME280;20156;47.486;12.074;2023-04-26T08:13:32;63601.63;;;-144.78;100.00
33859;BME280;20156;47.486;12.074;2023-04-26T08:15:58;63601.63;;;-144.78;100.00
33859;BME280;20156;47.486;12.074;2023-04-26T08:18:23;63601.63;;;-144.78;100.00
33859;BME280;20156;47.486;12.074;2023-04-26T08:20:49;63601.63;;;-144.78;100.00
33859;BME280;20156;47.486;12.074;2023-04-26T08:23:14;63601.63;;;-144.78;100.00
33859;BME280;20156;47.486;12.074;2023-04-26T08:25:40;63601.63;;;-144.78;100.00
33859;BME280;20156;47.486;12.074;2023-04-26T08:28:05;63601.63;;;-144.78;100.00
33859;BME280;20156;47.486;12.074;2023-04-26T08:30:32;63601.63;;;-144.78;100.00
33859;BME280;20156;47.486;12.074;2023-04-26T08:32:58;63601.63;;;-144.78;100.00
33859;BME280;20156;47.486;12.074;2023-04-26T08:35:23;63601.63;;;-144.78;100.00
33859;BME280;20156;47.486;12.074;2023-04-26T08:37:49;63601.63;;;-144.78;100.00
33859;BME280;20156;47.486;12.074;2023-04-26T08:40:22;63601.63;;;-144.78;100.00
33859;BME280;20156;47.486;12.074;2023-04-26T08:42:49;63601.63;;;-144.78;100.00
33859;BME280;20156;47.486;12.074;2023-04-26T08:45:17;63601.63;;;-144.78;100.00
33859;BME280;20156;47.486;12.074;2023-04-26T08:47:44;63601.63;;;-144.78;100.00
33859;BME280;20156;47.486;12.074;2023-04-26T08:50:13;63601.63;;;-144.78;100.00
33859;BME280;20156;47.486;12.074;2023-04-26T08:52:40;63601.63;;;-144.78;100.00
33859;BME280;20156;47.486;12.074;2023-04-26T08:55:10;63601.63;;;-144.78;100.00
33859;BME280;20156;47.486;12.074;2023-04-26T08:57:37;63601.63;;;-144.78;100.00
33859;BME280;20156;47.486;12.074;2023-04-26T09:00:05;63601.63;;;-144.78;100.00
33859;BME280;20156;47.486;12.074;2023-04-26T09:02:34;63601.63;;;-144.78;100.00
33859;BME280;20156;47.486;12.074;2023-04-26T09:05:01;63601.63;;;-144.78;100.00
33859;BME280;20156;47.486;12.074;2023-04-26T09:07:31;63601.63;;;-144.78;100.00
33859;BME280;20156;47.486;12.074;2023-04-26T09:09:58;63601.63;;;-144.78;100.00
33859;BME280;20156;47.486;12.074;2023-04-26T09:12:25;63601.63;;;-144.78;100.00
33859;BME280;20156;47.486;12.074;2023-04-26T09:14:51;63601.63;;;-144.78;100.00
33859;BME280;20156;47.486;12.074;2023-04-26T09:17:37;63601.63;;;-144.78;100.00
33859;BME280;20156;47.486;12.074;2023-04-26T09:22:49;63601.63;;;-144.78;100.00
33859;BME280;20156;47.486;12.074;2023-04-26T09:25:17;63601.63;;;-144.78;100.00
33859;BME280;20156;47.486;12.074;2023-04-26T09:27:44;63601.63;;;-144.78;100.00
33859;BME280;20156;47.486;12.074;2023-04-26T09:30:16;63601.63;;;-144.78;100.00
33859;BME280;20156;47.486;12.074;2023-04-26T09:32:52;63601.63;;;-144.78;100.00
33859;BME280;20156;47.486;12.074;2023-04-26T09:37:53;63601.63;;;-144.78;100.00
33859;BME280;20156;47.486;12.074;2023-04-26T09:40:19;63601.63;;;-144.78;100.00
33859;BME280;20156;47.486;12.074;2023-04-26T09:42:45;63601.63;;;-144.78;100.00
33859;BME280;20156;47.486;12.074;2023-04-26T09:45:11;63601.63;;;-144.78;100.00
33859;BME280;20156;47.486;12.074;2023-04-26T09:47:37;63601.63;;;-144.78;100.00
33859;BME280;20156;47.486;12.074;2023-04-26T09:50:02;63601.63;;;-144.78;100.00
33859;BME280;20156;47.486;12.074;2023-04-26T09:52:28;63601.63;;;-144.78;100.00
33859;BME280;20156;47.486;12.074;2023-04-26T09:54:53;63601.63;;;-144.78;100.00
33859;BME280;20156;47.486;12.074;2023-04-26T09:57:20;63601.63;;;-144.78;100.00
33859;BME280;20156;47.486;12.074;2023-04-26T09:59:50;63601.63;;;-144.78;100.00
33859;BME280;20156;47.486;12.074;2023-04-26T10:02:20;63601.63;;;-144.78;100.00
33859;BME280;20156;47.486;12.074;2023-04-26T10:04:51;63601.63;;;-144.78;100.00
33859;BME280;20156;47.486;12.074;2023-04-26T10:07:18;63601.63;;;-144.78;100.00
33859;BME280;20156;47.486;12.074;2023-04-26T10:09:45;63601.63;;;-144.78;100.00
33859;BME280;20156;47.486;12.074;2023-04-26T10:12:13;63601.63;;;-144.78;100.00
33859;BME280;20156;47.486;12.074;2023-04-26T10:14:39;63601.63;;;-144.78;100.00
33859;BME280;20156;47.486;12.074;2023-04-26T10:17:05;63601.63;;;-144.78;100.00
33859;BME280;20156;47.486;12.074;2023-04-26T10:19:32;63601.63;;;-144.78;100.00
33859;BME280;20156;47.486;12.074;2023-04-26T10:22:03;63601.63;;;-144.78;100.00
33859;BME280;20156;47.486;12.074;2023-04-26T10:24:29;63601.63;;;-144.78;100.00
33859;BME280;20156;47.486;12.074;2023-04-26T10:26:54;63601.63;;;-144.78;100.00
33859;BME280;20156;47.486;12.074;2023-04-26T10:29:25;63601.63;;;-144.78;100.00
33859;BME280;20156;47.486;12.074;2023-04-26T10:34:27;63601.63;;;-144.78;100.00
33859;BME280;20156;47.486;12.074;2023-04-26T10:37:12;63601.63;;;-144.78;100.00
33859;BME280;20156;47.486;12.074;2023-04-26T10:39:40;63601.63;;;-144.78;100.00
33859;BME280;20156;47.486;12.074;2023-04-26T10:42:28;63601.63;;;-144.78;100.00
33859;BME280;20156;47.486;12.074;2023-04-26T10:44:59;63601.63;;;-144.78;100.00
33859;BME280;20156;47.486;12.074;2023-04-26T10:47:36;63601.63;;;-144.78;100.00
33859;BME280;20156;47.486;12.074;2023-04-26T10:50:09;63601.63;;;-144.78;100.00
33859;BME280;20156;47.486;12.074;2023-04-26T10:52:37;63601.63;;;-144.78;100.00
33859;BME280;20156;47.486;12.074;2023-04-26T10:55:03;63601.63;;;-144.78;100.00
33859;BME280;20156;47.486;12.074;2023-04-26T10:57:49;63601.63;;;-144.78;100.00
33859;BME280;20156;47.486;12.074;2023-04-26T11:00:16;63601.63;;;-144.78;100.00
33859;BME280;20156;47.486;12.074;2023-04-26T11:08:15;63601.63;;;-144.78;100.00
33859;BME280;20156;47.486;12.074;2023-04-26T11:10:45;63601.63;;;-144.78;100.00
33859;BME280;20156;47.486;12.074;2023-04-26T11:13:14;63601.63;;;-144.78;100.00
33859;BME280;20156;47.486;12.074;2023-04-26T11:15:41;63601.63;;;-144.78;100.00
33859;BME280;20156;47.486;12.074;2023-04-26T11:18:06;63601.63;;;-144.78;100.00
33859;BME280;20156;47.486;12.074;2023-04-26T11:20:32;63601.63;;;-144.78;100.00
33859;BME280;20156;47.486;12.074;2023-04-26T11:22:58;63601.63;;;-144.78;100.00
33859;BME280;20156;47.486;12.074;2023-04-26T11:25:28;63601.63;;;-144.78;100.00
33859;BME280;20156;47.486;12.074;2023-04-26T11:28:01;63601.63;;;-144.78;100.00
33859;BME280;20156;47.486;12.074;2023-04-26T11:30:33;63601.63;;;-144.78;100.00
33859;BME280;20156;47.486;12.074;2023-04-26T11:32:59;63601.63;;;-144.78;100.00
33859;BME280;20156;47.486;12.074;2023-04-26T11:35:25;63601.63;;;-144.78;100.00
33859;BME280;20156;47.486;12.074;2023-04-26T11:37:51;63601.63;;;-144.78;100.00
33859;BME280;20156;47.486;12.074;2023-04-26T11:40:17;63601.63;;;-144.78;100.00
33859;BME280;20156;47.486;12.074;2023-04-26T11:42:46;63601.63;;;-144.78;100.00
33859;BME280;20156;47.486;12.074;2023-04-26T11:45:14;63601.63;;;-144.78;100.00
33859;BME280;20156;47.486;12.074;2023-04-26T11:47:40;63601.63;;;-144.78;100.00
33859;BME280;20156;47.486;12.074;2023-04-26T11:50:07;63601.63;;;-144.78;100.00
33859;BME280;20156;47.486;12.074;2023-04-26T11:52:34;63601.63;;;-144.78;100.00
33859;BME280;20156;47.486;12.074;2023-04-26T11:55:04;63601.63;;;-144.78;100.00
33859;BME280;20156;47.486;12.074;2023-04-26T11:57:31;63601.63;;;-144.78;100.00
33859;BME280;20156;47.486;12.074;2023-04-26T12:00:11;63601.63;;;-144.78;100.00
33859;BME280;20156;47.486;12.074;2023-04-26T12:02:39;63601.63;;;-144.78;100.00
33859;BME280;20156;47.486;12.074;2023-04-26T12:05:05;63601.63;;;-144.78;100.00
33859;BME280;20156;47.486;12.074;2023-04-26T12:07:36;63601.63;;;-144.78;100.00
33859;BME280;20156;47.486;12.074;2023-04-26T12:10:19;63601.63;;;-144.78;100.00
33859;BME280;20156;47.486;12.074;2023-04-26T12:12:49;63601.63;;;-144.78;100.00
33859;BME280;20156;47.486;12.074;2023-04-26T12:15:16;63601.63;;;-144.78;100.00
33859;BME280;20156;47.486;12.074;2023-04-26T12:17:52;63601.63;;;-144.78;100.00
33859;BME280;20156;47.486;12.074;2023-04-26T12:20:18;63601.63;;;-144.78;100.00
33859;BME280;20156;47.486;12.074;2023-04-26T12:25:28;63601.63;;;-144.78;100.00
33859;BME280;20156;47.486;12.074;2023-04-26T12:27:55;63601.63;;;-144.78;100.00
33859;BME280;20156;47.486;12.074;2023-04-26T12:30:20;63601.63;;;-144.78;100.00
33859;BME280;20156;47.486;12.074;2023-04-26T12:32:46;63601.63;;;-144.78;100.00
33859;BME280;20156;47.486;12.074;2023-04-26T12:35:11;63601.63;;;-144.78;100.00
33859;BME280;20156;47.486;12.074;2023-04-26T12:37:37;63601.63;;;-144.78;100.00
33859;BME280;20156;47.486;12.074;2023-04-26T12:40:03;63601.63;;;-144.78;100.00